Time;durP1;ratioP1;P1;durP2;ratioP2;P2;SDS_P1;SDS_P2;PMS_P1;PMS_P2;Temp;Humidity;BMP_temperature;BMP_pressure;BME280_temperature;BME280_humidity;BME280_pressure;Samples;Min_cycle;Max_cycle;Signal;HPM_P1;HPM_P2
2023/04/03 00:00:12;;;;;;;;;;;;;;;-142.75;100.00;79378.31;5012894;28;20544;-68
2023/04/03 00:02:37;;;;;;;5.60;1.20;;;;;;;-142.75;100.00;79403.94;5012657;28;20004;-67
2023/04/03 00:05:04;;;;;;;2.80;1.07;;;;;;;-142.75;100.00;79409.84;5011297;28;20022;-67
2023/04/03 00:07:29;;;;;;;1.67;1.13;;;;;;;-142.75;100.00;79403.94;5011363;28;20099;-67
2023/04/03 00:09:55;;;;;;;2.83;0.83;;;;;;;-142.75;100.00;79405.91;5012568;28;20057;-66
2023/04/03 00:12:20;;;;;;;3.70;1.10;;;;;;;-142.75;100.00;79411.81;5012241;28;20026;-67
2023/04/03 00:14:45;;;;;;;8.77;1.27;;;;;;;-142.75;100.00;79409.84;5011017;28;20032;-67
2023/04/03 00:17:11;;;;;;;1.87;1.20;;;;;;;-142.75;100.00;79435.44;5011197;28;20051;-67
2023/04/03 00:19:36;;;;;;;2.67;1.00;;;;;;;-142.75;100.00;79421.66;5012448;28;20022;-68
2023/04/03 00:22:01;;;;;;;2.10;1.20;;;;;;;-142.75;100.00;79437.41;5010966;28;20026;-68
2023/04/03 00:24:27;;;;;;;1.60;0.90;;;;;;;-142.75;100.00;79433.47;5012398;28;20371;-68
2023/04/03 00:26:52;;;;;;;2.53;0.90;;;;;;;-142.75;100.00;79441.34;5012203;28;20366;-67
2023/04/03 00:29:17;;;;;;;2.73;1.03;;;;;;;-142.75;100.00;79445.28;5012124;28;20397;-68
2023/04/03 00:31:43;;;;;;;4.37;1.20;;;;;;;-142.75;100.00;79445.28;5012154;28;20029;-68
2023/04/03 00:34:08;;;;;;;2.67;1.17;;;;;;;-142.75;100.00;79437.41;5012328;28;20037;-68
2023/04/03 00:36:34;;;;;;;3.50;1.30;;;;;;;-142.75;100.00;79441.34;5012121;28;20026;-68
2023/04/03 00:38:59;;;;;;;3.30;1.00;;;;;;;-142.75;100.00;79423.63;5012156;28;20017;-67
2023/04/03 00:41:25;;;;;;;6.90;1.30;;;;;;;-142.75;100.00;79425.59;5012037;28;20100;-67
2023/04/03 00:43:50;;;;;;;;;;;;;;;-142.75;100.00;79439.38;5012399;28;20490;-66
2023/04/03 00:46:16;;;;;;;2.63;1.30;;;;;;;-142.75;100.00;79433.47;5010691;28;19910;-66
2023/04/03 00:48:47;;;;;;;5.13;1.40;;;;;;;-142.75;100.00;79427.56;5011967;28;20033;-66
2023/04/03 00:51:30;;;;;;;5.13;1.10;;;;;;;-142.75;100.00;79425.59;5012075;28;20501;-66
2023/04/03 00:54:00;;;;;;;2.23;1.10;;;;;;;-142.75;100.00;79417.72;5010744;28;20485;-66
2023/04/03 00:56:29;;;;;;;1.73;0.87;;;;;;;-142.75;100.00;79441.34;4972781;28;20111;-67
2023/04/03 00:59:00;;;;;;;3.83;1.33;;;;;;;-142.75;100.00;79457.13;4972753;28;20037;-66
2023/04/03 01:01:28;;;;;;;2.37;1.00;;;;;;;-142.75;100.00;79449.25;4972905;28;20084;-66
2023/04/03 01:03:54;;;;;;;1.90;0.80;;;;;;;-142.75;100.00;79445.28;4971686;28;20031;-66
2023/04/03 01:06:28;;;;;;;3.83;1.33;;;;;;;-142.75;100.00;79447.28;4971463;28;20092;-66
2023/04/03 01:08:55;;;;;;;2.70;0.90;;;;;;;-142.75;100.00;79465.00;4971354;28;20117;-66
2023/04/03 01:11:20;;;;;;;2.37;1.10;;;;;;;-142.75;100.00;79461.06;4972855;28;20015;-66
2023/04/03 01:13:46;;;;;;;2.63;1.10;;;;;;;-142.75;100.00;79459.09;4971455;28;20517;-67
2023/04/03 01:16:11;;;;;;;5.90;1.33;;;;;;;-142.75;100.00;79449.25;4972672;28;20034;-66
2023/04/03 01:18:39;;;;;;;2.80;1.27;;;;;;;-142.75;100.00;79468.94;4972785;28;20102;-66
2023/04/03 01:21:14;;;;;;;3.57;1.63;;;;;;;-142.75;100.00;79492.56;4971431;28;20026;-67
2023/04/03 01:23:52;;;;;;;2.38;1.00;;;;;;;-142.75;100.00;79490.59;4972653;28;20154;-66
2023/04/03 01:26:18;;;;;;;3.20;1.07;;;;;;;-142.75;100.00;79494.53;4972611;28;20039;-66
2023/04/03 01:28:43;;;;;;;2.77;1.27;;;;;;;-142.75;100.00;79496.50;4972616;28;20033;-66
2023/04/03 01:31:30;;;;;;;2.70;1.40;;;;;;;-142.75;100.00;79468.94;4972736;28;20035;-66
2023/04/03 01:33:55;;;;;;;2.80;1.25;;;;;;;-142.75;100.00;79500.47;4971309;28;20027;-66
2023/04/03 01:36:26;;;;;;;3.67;1.20;;;;;;;-142.75;100.00;79480.75;4987367;28;20035;-66
2023/04/03 01:38:53;;;;;;;3.17;1.10;;;;;;;-142.75;100.00;79486.66;4996857;28;20401;-66
2023/04/03 01:41:18;;;;;;;3.43;1.20;;;;;;;-142.75;100.00;79502.44;5012644;28;20117;-66
2023/04/03 01:43:44;;;;;;;4.33;1.20;;;;;;;-142.75;100.00;79496.50;5015194;28;20029;-66
2023/04/03 01:46:09;;;;;;;3.53;1.40;;;;;;;-142.75;100.00;79496.50;5013827;28;20022;-66
2023/04/03 01:48:35;;;;;;;1.57;0.80;;;;;;;-142.75;100.00;79492.56;5013977;28;20420;-66
2023/04/03 01:51:00;;;;;;;3.00;1.10;;;;;;;-142.75;100.00;79508.34;5015111;28;20553;-66
2023/04/03 01:53:26;;;;;;;2.93;1.10;;;;;;;-142.75;100.00;79528.03;5015042;28;20028;-67
2023/04/03 01:55:51;;;;;;;1.97;1.10;;;;;;;-142.75;100.00;79530.00;5015023;28;20067;-66
2023/04/03 01:58:16;;;;;;;2.53;1.10;;;;;;;-142.75;100.00;79516.22;5015041;28;20026;-66
2023/04/03 02:00:42;;;;;;;2.90;1.40;;;;;;;-142.75;100.00;79516.22;5013432;28;20032;-66
2023/04/03 02:03:07;;;;;;;5.20;1.33;;;;;;;-142.75;100.00;79535.91;5013652;28;20018;-66
2023/04/03 02:05:33;;;;;;;2.47;1.20;;;;;;;-142.75;100.00;79547.72;5013581;28;20030;-67
2023/04/03 02:07:58;;;;;;;2.57;1.63;;;;;;;-142.75;100.00;79535.91;5014901;28;20466;-66
2023/04/03 02:10:24;;;;;;;5.00;1.60;;;;;;;-142.75;100.00;79539.84;5014823;28;20105;-66
2023/04/03 02:12:50;;;;;;;2.50;1.20;;;;;;;-142.75;100.00;79528.03;5014710;28;20026;-65
2023/04/03 02:15:16;;;;;;;2.73;1.17;;;;;;;-142.75;100.00;79531.97;5013203;28;20176;-66
2023/04/03 02:17:41;;;;;;;2.43;1.20;;;;;;;-142.75;100.00;79524.09;5014053;28;20513;-66
2023/04/03 02:20:07;;;;;;;;;;;;;;;-142.75;100.00;79516.22;5015068;28;20057;-66
2023/04/03 02:22:32;;;;;;;2.13;0.80;;;;;;;-142.75;100.00;79512.28;5014483;28;19916;-67
2023/04/03 02:24:57;;;;;;;4.10;1.40;;;;;;;-142.75;100.00;79539.84;5014513;28;20030;-66
2023/04/03 02:27:23;;;;;;;3.80;1.20;;;;;;;-142.75;100.00;79543.78;5014546;28;20056;-66
2023/04/03 02:29:48;;;;;;;3.10;1.30;;;;;;;-142.75;100.00;79547.72;5014543;28;20033;-66
2023/04/03 02:32:13;;;;;;;4.83;1.20;;;;;;;-142.75;100.00;79551.69;5014331;28;20109;-66
2023/04/03 02:34:39;;;;;;;2.57;1.10;;;;;;;-142.75;100.00;79567.44;5014383;28;20481;-66
2023/04/03 02:37:05;;;;;;;2.43;0.90;;;;;;;-142.75;100.00;79561.53;5012915;28;20022;-66
2023/04/03 02:39:30;;;;;;;3.07;1.10;;;;;;;-142.75;100.00;79563.50;5013049;28;20037;-66
2023/04/03 02:41:55;;;;;;;3.13;1.40;;;;;;;-142.75;100.00;79595.00;5014092;28;20022;-66
2023/04/03 02:44:21;;;;;;;2.43;1.30;;;;;;;-142.75;100.00;79575.31;5012979;28;20028;-66
2023/04/03 02:46:46;;;;;;;4.23;1.30;;;;;;;-142.75;100.00;79575.31;5014021;28;20110;-65
2023/04/03 02:49:12;;;;;;;3.83;1.10;;;;;;;-142.75;100.00;79579.25;5014036;28;20132;-66
2023/04/03 02:51:37;;;;;;;3.73;1.70;;;;;;;-142.75;100.00;79569.41;5013993;28;20017;-66
2023/04/03 02:54:02;;;;;;;2.67;1.30;;;;;;;-142.75;100.00;79567.44;5012903;28;20026;-65
2023/04/03 02:56:28;;;;;;;2.70;1.43;;;;;;;-142.75;100.00;79604.88;5013903;28;20022;-66
2023/04/03 02:58:53;;;;;;;2.47;0.97;;;;;;;-142.75;100.00;79614.72;5012480;28;20524;-66
2023/04/03 03:01:19;;;;;;;2.30;1.20;;;;;;;-142.75;100.00;79606.84;5014306;28;20034;-66
2023/04/03 03:03:44;;;;;;;2.97;1.20;;;;;;;-142.75;100.00;79620.63;5013752;28;20494;-66
2023/04/03 03:06:14;;;;;;;3.47;1.40;;;;;;;-142.75;100.00;79614.72;5013714;28;20680;-66
2023/04/03 03:08:41;;;;;;;3.50;1.47;;;;;;;-142.75;100.00;79620.63;5012488;28;20026;-66
2023/04/03 03:11:07;;;;;;;5.40;1.50;;;;;;;-142.75;100.00;79618.66;5012511;28;20159;-66
2023/04/03 03:13:33;;;;;;;4.10;1.30;;;;;;;-142.75;100.00;79618.66;5013640;28;20136;-66
2023/04/03 03:15:59;;;;;;;1.93;1.27;;;;;;;-142.75;100.00;79630.47;5013532;28;20022;-66
2023/04/03 03:18:25;;;;;;;2.47;1.13;;;;;;;-142.75;100.00;79650.16;5013595;28;20034;-66
2023/04/03 03:20:55;;;;;;;3.53;1.40;;;;;;;-142.75;100.00;79632.44;5013385;28;20022;-66
2023/04/03 03:23:22;;;;;;;3.30;1.40;;;;;;;-142.75;100.00;79644.25;5013421;28;20026;-66
2023/04/03 03:25:54;;;;;;;3.03;1.07;;;;;;;-142.75;100.00;79638.34;5013339;28;20029;-66
2023/04/03 03:28:19;;;;;;;4.33;1.17;;;;;;;-142.75;100.00;79654.13;5012033;28;20030;-67
2023/04/03 03:30:44;;;;;;;5.40;1.20;;;;;;;-142.75;100.00;79640.31;5013285;28;20029;-66
2023/04/03 03:33:10;;;;;;;2.83;1.30;;;;;;;-142.75;100.00;79634.41;5011961;28;20485;-66
2023/04/03 03:35:35;;;;;;;4.07;1.10;;;;;;;-142.75;100.00;79626.53;5013103;28;20568;-66
2023/04/03 03:38:01;;;;;;;4.40;1.47;;;;;;;-142.75;100.00;79640.31;5013173;28;20072;-66
2023/04/03 03:40:26;;;;;;;2.80;1.27;;;;;;;-142.75;100.00;79652.13;5013084;28;20048;-66
2023/04/03 03:42:51;;;;;;;3.07;1.40;;;;;;;-142.75;100.00;79650.16;5012461;28;20424;-66
2023/04/03 03:45:17;;;;;;;5.37;1.50;;;;;;;-142.75;100.00;79667.91;5012927;28;20026;-66
2023/04/03 03:47:42;;;;;;;4.40;1.80;;;;;;;-142.75;100.00;79673.81;5011853;28;20040;-67
2023/04/03 03:50:08;;;;;;;1.63;1.00;;;;;;;-142.75;100.00;79669.88;5011772;28;20397;-66
2023/04/03 03:52:34;;;;;;;3.57;1.30;;;;;;;-142.75;100.00;79656.09;5012894;28;20022;-66
2023/04/03 03:54:59;;;;;;;3.60;1.47;;;;;;;-142.75;100.00;79652.13;5011528;28;20551;-67
2023/04/03 03:57:26;;;;;;;2.80;1.17;;;;;;;-142.75;100.00;79636.38;5012794;28;20025;-66
2023/04/03 03:59:52;;;;;;;3.03;1.30;;;;;;;-142.75;100.00;79662.00;5012678;28;20539;-67
2023/04/03 04:02:18;;;;;;;3.97;1.40;;;;;;;-142.75;100.00;79665.94;5012517;28;20025;-67
2023/04/03 04:04:43;;;;;;;5.13;1.73;;;;;;;-142.75;100.00;79669.88;5012232;28;20038;-64
2023/04/03 04:07:08;;;;;;;3.40;1.53;;;;;;;-142.75;100.00;79663.97;5012709;28;20492;-66
2023/04/03 04:09:34;;;;;;;3.50;1.60;;;;;;;-142.75;100.00;79650.16;5011324;28;20064;-67
2023/04/03 04:11:59;;;;;;;2.63;1.30;;;;;;;-142.75;100.00;79667.91;5012549;28;20021;-66
2023/04/03 04:14:25;;;;;;;7.63;1.77;;;;;;;-142.75;100.00;79650.16;5012593;28;20103;-66
2023/04/03 04:16:50;;;;;;;4.37;2.20;;;;;;;-142.75;100.00;79644.25;5012409;28;20516;-66
2023/04/03 04:19:15;;;;;;;6.00;1.40;;;;;;;-142.75;100.00;79663.97;5012376;28;20091;-66
2023/04/03 04:21:41;;;;;;;4.17;1.77;;;;;;;-142.75;100.00;79679.72;5010930;28;20021;-66
2023/04/03 04:24:07;;;;;;;3.13;1.47;;;;;;;-142.75;100.00;79663.97;5012436;28;20029;-66
2023/04/03 04:26:32;;;;;;;3.30;1.30;;;;;;;-142.75;100.00;79662.00;5012300;28;20030;-66
2023/04/03 04:28:58;;;;;;;2.43;1.03;;;;;;;-142.75;100.00;79675.78;5012242;28;20037;-66
2023/04/03 04:31:23;;;;;;;3.73;1.23;;;;;;;-142.75;100.00;79689.56;5011164;28;20017;-66
2023/04/03 04:33:48;;;;;;;2.37;1.30;;;;;;;-142.75;100.00;79703.38;5012158;28;20029;-66
2023/04/03 04:36:14;;;;;;;2.53;1.33;;;;;;;-142.75;100.00;79691.53;5012069;28;20504;-67
2023/04/03 04:38:40;;;;;;;2.00;1.27;;;;;;;-142.75;100.00;79689.56;5012073;28;20052;-66
2023/04/03 04:41:06;;;;;;;2.73;1.30;;;;;;;-142.75;100.00;79701.38;5012145;28;20029;-66
2023/04/03 04:43:31;;;;;;;2.93;1.47;;;;;;;-142.75;100.00;79701.38;5010691;28;20036;-66
2023/04/03 04:46:04;;;;;;;5.60;1.37;;;;;;;-142.75;100.00;79689.56;5011971;28;20481;-66
2023/04/03 04:48:29;;;;;;;6.00;1.30;;;;;;;-142.75;100.00;79703.38;5012012;28;20029;-67
2023/04/03 04:50:55;;;;;;;3.17;1.20;;;;;;;-142.75;100.00;79699.41;5011892;28;20485;-66
2023/04/03 04:53:20;;;;;;;5.37;1.63;;;;;;;-142.75;100.00;79697.44;5011947;28;20026;-65
2023/04/03 04:55:45;;;;;;;3.20;1.53;;;;;;;-142.75;100.00;79705.34;5010603;28;20029;-66
2023/04/03 04:58:11;;;;;;;3.20;1.53;;;;;;;-142.75;100.00;79719.13;5012068;28;20022;-67
2023/04/03 05:00:36;;;;;;;4.47;1.90;;;;;;;-142.75;100.00;79707.31;5010340;28;20537;-67
2023/04/03 05:03:01;;;;;;;6.00;2.23;;;;;;;-142.75;100.00;79727.00;5011796;28;20049;-67
2023/04/03 05:05:27;;;;;;;5.47;1.83;;;;;;;-142.75;100.00;79740.78;5010497;28;20034;-67
2023/04/03 05:07:52;;;;;;;3.60;1.77;;;;;;;-142.75;100.00;79760.50;5010630;28;20025;-66
2023/04/03 05:10:18;;;;;;;5.03;1.63;;;;;;;-142.75;100.00;79750.66;5011627;28;20037;-66
2023/04/03 05:12:43;;;;;;;5.13;1.90;;;;;;;-142.75;100.00;79740.78;5010467;28;20022;-66
2023/04/03 05:15:09;;;;;;;5.73;1.83;;;;;;;-142.75;100.00;79768.38;5010351;28;20030;-67
2023/04/03 05:17:34;;;;;;;4.67;1.90;;;;;;;-142.75;100.00;79756.56;5015085;28;20022;-67
2023/04/03 05:20:00;;;;;;;2.87;1.63;;;;;;;-142.75;100.00;79752.63;5014345;28;20049;-66
2023/04/03 05:22:25;;;;;;;5.97;1.70;;;;;;;-142.75;100.00;79740.78;5015657;28;20647;-67
2023/04/03 05:24:50;;;;;;;3.57;1.57;;;;;;;-142.75;100.00;79748.66;5015693;28;20390;-66
2023/04/03 05:27:16;;;;;;;3.77;1.63;;;;;;;-142.75;100.00;79742.75;5014566;28;20021;-66
2023/04/03 05:29:43;;;;;;;3.10;1.50;;;;;;;-142.75;100.00;79752.63;5015561;28;20026;-66
2023/04/03 05:32:09;;;;;;;4.60;2.10;;;;;;;-142.75;100.00;79746.69;5015498;28;20037;-66
2023/04/03 05:34:35;;;;;;;6.33;1.80;;;;;;;-142.75;100.00;79752.63;5014233;28;20033;-66
2023/04/03 05:37:00;;;;;;;2.93;1.53;;;;;;;-142.75;100.00;79750.66;5015371;28;20038;-67
2023/04/03 05:39:28;;;;;;;3.73;1.40;;;;;;;-142.75;100.00;79748.66;5009824;28;20398;-66
2023/04/03 05:41:53;;;;;;;6.23;2.17;;;;;;;-142.75;100.00;79758.53;4995574;28;20030;-66
2023/04/03 05:44:18;;;;;;;4.83;2.00;;;;;;;-142.75;100.00;79776.25;4994490;28;20022;-66
2023/04/03 05:46:44;;;;;;;4.33;1.83;;;;;;;-142.75;100.00;79748.66;4995582;28;20390;-66
2023/04/03 05:49:09;;;;;;;2.80;1.60;;;;;;;-142.75;100.00;79740.78;4995548;28;20041;-66
2023/04/03 05:51:35;;;;;;;6.10;1.40;;;;;;;-142.75;100.00;79732.91;4995560;28;20022;-65
2023/04/03 05:54:10;;;;;;;5.87;1.70;;;;;;;-142.75;100.00;79717.16;4995536;28;20030;-66
2023/04/03 05:56:35;;;;;;;3.13;1.50;;;;;;;-142.75;100.00;79673.81;4995405;28;20026;-66
2023/04/03 05:59:00;;;;;;;6.17;1.70;;;;;;;-142.75;100.00;79665.94;4995299;28;20084;-66
2023/04/03 06:01:26;;;;;;;4.03;1.83;;;;;;;-142.75;100.00;79652.13;4993962;28;20125;-66
2023/04/03 06:03:51;;;;;;;5.87;1.90;;;;;;;-142.75;100.00;79654.13;4995248;28;20038;-66
2023/04/03 06:06:17;;;;;;;4.10;1.63;;;;;;;-142.75;100.00;79638.34;4993795;28;20486;-66
2023/04/03 06:08:43;;;;;;;2.87;1.37;;;;;;;-142.75;100.00;79640.31;4993774;28;20030;-64
2023/04/03 06:11:09;;;;;;;3.50;1.73;;;;;;;-142.75;100.00;79608.81;4994054;28;20014;-66
2023/04/03 06:13:35;;;;;;;3.67;1.93;;;;;;;-142.75;100.00;79587.13;4995139;28;20026;-67
2023/04/03 06:16:00;;;;;;;2.73;1.67;;;;;;;-142.75;100.00;79573.34;4995040;28;20049;-66
2023/04/03 06:18:26;;;;;;;5.77;1.70;;;;;;;-142.75;100.00;79567.44;4995092;28;20027;-64
2023/04/03 06:20:51;;;;;;;4.40;1.37;;;;;;;-142.75;100.00;79567.44;4993713;28;20027;-65
2023/04/03 06:23:17;;;;;;;4.67;1.90;;;;;;;-142.75;100.00;79565.47;4994855;28;20026;-66
2023/04/03 06:25:42;;;;;;;4.07;1.67;;;;;;;-142.75;100.00;79539.84;4994884;28;20026;-69
2023/04/03 06:28:09;;;;;;;5.07;2.00;;;;;;;-142.75;100.00;79530.00;4994661;28;20036;-68
2023/04/03 06:30:36;;;;;;;4.63;1.50;;;;;;;-142.75;100.00;79516.22;5000533;28;20367;-69
2023/04/03 06:33:01;;;;;;;3.93;1.50;;;;;;;-142.75;100.00;79500.47;5000142;28;20097;-68
2023/04/03 06:35:28;;;;;;;2.83;1.50;;;;;;;-142.75;100.00;79484.69;5003199;28;20057;-65
2023/04/03 06:37:53;;;;;;;3.23;1.50;;;;;;;-142.75;100.00;79463.03;5014253;28;20021;-65
2023/04/03 06:40:23;;;;;;;2.60;1.17;;;;;;;-142.75;100.00;79417.72;5014138;28;20088;-66
2023/04/03 06:42:50;;;;;;;5.90;1.63;;;;;;;-142.75;100.00;79405.91;5002700;28;20032;-66
2023/04/03 06:45:15;;;;;;;6.40;1.53;;;;;;;-142.75;100.00;79398.03;4989427;28;20053;-66
2023/04/03 06:47:41;;;;;;;4.77;1.83;;;;;;;-142.75;100.00;79382.25;4993864;28;20482;-65
2023/04/03 06:50:07;;;;;;;4.93;1.50;;;;;;;-142.75;100.00;79358.63;4993968;28;20431;-65
2023/04/03 06:52:32;;;;;;;4.47;1.27;;;;;;;-142.75;100.00;79354.69;4990029;28;20034;-65
2023/04/03 06:54:59;;;;;;;3.90;1.80;;;;;;;-142.75;100.00;79331.03;4988702;28;20022;-66
2023/04/03 06:57:25;;;;;;;6.40;1.93;;;;;;;-142.75;100.00;79327.09;4990677;28;20035;-66
2023/04/03 06:59:51;;;;;;;4.93;1.70;;;;;;;-142.75;100.00;79303.47;4983697;28;20019;-66
2023/04/03 07:02:16;;;;;;;6.07;2.30;;;;;;;-142.75;100.00;79277.88;4993670;28;20033;-66
2023/04/03 07:04:42;;;;;;;5.40;1.40;;;;;;;-142.75;100.00;79291.66;4984322;28;20470;-66
2023/04/03 07:07:07;;;;;;;4.60;1.70;;;;;;;-142.75;100.00;79305.44;4977920;28;20030;-64
2023/04/03 07:09:33;;;;;;;2.77;1.20;;;;;;;-142.75;100.00;79283.78;4965229;28;20030;-66
2023/04/03 07:11:58;;;;;;;4.70;1.50;;;;;;;-142.75;100.00;79275.88;4985289;28;20469;-66
2023/04/03 07:14:23;;;;;;;7.13;1.70;;;;;;;-142.75;100.00;79216.78;4993790;28;20029;-66
2023/04/03 07:16:49;;;;;;;4.83;1.70;;;;;;;-142.75;100.00;79199.06;4991979;28;20026;-65
2023/04/03 07:19:15;;;;;;;3.57;1.33;;;;;;;-142.75;100.00;79246.34;4990016;28;20049;-66
2023/04/03 07:21:41;;;;;;;;;;;;;;;-142.75;100.00;79224.69;4993687;28;20019;-66
2023/04/03 07:24:07;;;;;;;2.10;0.82;;;;;;;-142.75;100.00;79220.75;4985116;28;20382;-66
2023/04/03 07:26:32;;;;;;;;;;;;;;;-142.75;100.00;79193.16;4984882;28;20081;-66
2023/04/03 07:28:58;;;;;;;6.20;1.20;;;;;;;-142.75;100.00;79218.75;4983325;28;19937;-67
2023/04/03 07:31:23;;;;;;;5.37;1.43;;;;;;;-142.75;100.00;79201.03;4986596;28;20405;-65
2023/04/03 07:33:48;;;;;;;4.23;1.10;;;;;;;-142.75;100.00;79149.81;4999295;28;20057;-66
2023/04/03 07:36:19;;;;;;;5.07;1.53;;;;;;;-142.75;100.00;79141.94;4999491;28;20080;-66
2023/04/03 07:38:45;;;;;;;3.03;1.37;;;;;;;-142.75;100.00;79141.94;5001869;28;20030;-66
2023/04/03 07:41:19;;;;;;;3.93;1.30;;;;;;;-142.75;100.00;79122.25;5013066;28;20559;-65
2023/04/03 07:43:46;;;;;;;4.97;1.47;;;;;;;-142.75;100.00;79138.00;5012589;28;20030;-65
2023/04/03 07:46:11;;;;;;;4.37;1.50;;;;;;;-142.75;100.00;79106.50;5012887;28;20100;-65
2023/04/03 07:48:37;;;;;;;4.40;1.53;;;;;;;-142.75;98.49;79114.38;5011759;28;20409;-65
2023/04/03 07:51:04;;;;;;;4.80;1.57;;;;;;;-142.75;98.79;79094.69;5012867;28;20548;-65
2023/04/03 07:53:30;;;;;;;6.17;1.70;;;;;;;-142.75;96.79;79088.75;5011565;28;20025;-66
2023/04/03 07:55:58;;;;;;;3.83;1.30;;;;;;;-142.75;94.51;79080.88;5012689;28;20041;-65
2023/04/03 07:58:23;;;;;;;7.60;1.43;;;;;;;-142.75;93.43;79096.66;5012829;28;20092;-65
2023/04/03 08:00:49;;;;;;;4.47;1.40;;;;;;;-142.75;94.60;79059.22;5012546;28;20034;-65
2023/04/03 08:03:16;;;;;;;3.27;1.10;;;;;;;-142.75;93.46;79013.91;5011207;28;20022;-65
2023/04/03 08:05:43;;;;;;;3.00;1.17;;;;;;;-142.75;89.73;79015.88;5011218;28;20486;-65
2023/04/03 08:08:11;;;;;;;3.87;1.30;;;;;;;-142.75;90.97;79021.78;5012614;28;20036;-67
2023/04/03 08:10:37;;;;;;;6.73;1.40;;;;;;;-142.75;90.64;78988.31;5012568;28;20058;-68
2023/04/03 08:13:03;;;;;;;5.27;1.57;;;;;;;-142.75;88.51;78996.19;5012517;28;20442;-66
2023/04/03 08:15:30;;;;;;;6.33;1.93;;;;;;;-142.75;93.01;78964.69;5005001;28;20072;-67
2023/04/03 08:17:55;;;;;;;6.97;1.20;;;;;;;-142.75;88.33;78946.94;4991565;28;20026;-68
2023/04/03 08:20:21;;;;;;;5.50;1.52;;;;;;;-142.75;86.70;78978.47;4992706;28;20398;-64
2023/04/03 08:22:46;;;;;;;5.93;1.65;;;;;;;-142.75;88.78;78992.25;4990804;28;20402;-65
2023/04/03 08:25:12;;;;;;;5.37;1.43;;;;;;;-142.75;88.21;78970.59;4992565;28;20030;-65
2023/04/03 08:27:38;;;;;;;4.30;1.40;;;;;;;-142.75;87.31;78941.03;4992850;28;20501;-65
2023/04/03 08:30:04;;;;;;;4.30;1.35;;;;;;;-142.75;87.23;78903.63;4982331;28;20109;-65
2023/04/03 08:32:29;;;;;;;5.68;2.13;;;;;;;-142.75;86.65;78917.41;4991531;28;20560;-66
2023/04/03 08:34:55;;;;;;;7.75;2.00;;;;;;;-142.75;87.20;78878.00;4992131;28;20110;-66
2023/04/03 08:37:20;;;;;;;6.18;1.75;;;;;;;-142.75;84.24;78828.78;4991204;28;20041;-65
2023/04/03 08:39:47;;;;;;;3.92;1.38;;;;;;;-142.75;83.11;78854.38;4992276;28;20025;-66
2023/04/03 08:42:19;;;;;;;3.58;1.17;;;;;;;-142.75;83.05;78876.03;4992400;28;20033;-65
2023/04/03 08:45:00;;;;;;;2.83;1.17;;;;;;;-142.75;80.71;78836.66;4992169;28;20022;-64
2023/04/03 08:47:52;;;;;;;5.78;1.65;;;;;;;-142.75;80.62;78844.53;4991199;28;20511;-65
2023/04/03 08:50:23;;;;;;;2.22;1.15;;;;;;;-142.75;81.05;78773.63;4990166;28;20066;-65
2023/04/03 08:52:57;;;;;;;5.47;1.10;;;;;;;-142.75;77.98;78807.09;4991062;28;20449;-65
2023/04/03 08:55:33;;;;;;;3.60;1.23;;;;;;;-142.75;79.76;78773.63;4989829;28;20053;-65
2023/04/03 08:58:03;;;;;;;5.88;1.73;;;;;;;-142.75;79.41;78791.34;4992276;28;20038;-65
2023/04/03 09:00:37;;;;;;;5.03;1.23;;;;;;;-142.75;79.77;78738.16;4990615;28;20124;-65
2023/04/03 09:03:03;;;;;;;5.22;1.50;;;;;;;-142.75;76.87;78716.50;5011489;22;20058;-64
2023/04/03 09:05:39;;;;;;;2.90;0.70;;;;;;;-142.75;74.20;78720.44;4999338;28;20034;-65
2023/04/03 09:08:19;;;;;;;3.88;0.90;;;;;;;-142.75;72.69;78720.44;5011548;28;20497;-65
2023/04/03 09:10:44;;;;;;;3.72;1.02;;;;;;;-142.75;74.32;78738.16;5011736;28;20022;-65
2023/04/03 09:13:39;;;;;;;3.83;0.88;;;;;;;-142.75;73.04;78736.19;5011577;28;20536;-66
2023/04/03 09:16:28;;;;;;;2.92;0.80;;;;;;;-142.75;71.72;78704.69;5006430;28;20065;-64
2023/04/03 09:19:09;;;;;;;1.50;0.80;;;;;;;-142.75;72.66;78685.00;4972003;28;20454;-64
2023/04/03 09:21:42;;;;;;;4.53;1.10;;;;;;;-142.75;67.75;78751.97;5006724;28;20520;-64
2023/04/03 09:24:10;;;;;;;4.72;0.90;;;;;;;-142.75;70.21;78704.69;5010082;28;20022;-65
2023/04/03 09:26:58;;;;;;;4.63;1.80;;;;;;;-142.75;67.56;78663.31;4991728;28;20121;-65
2023/04/03 09:29:25;;;;;;;2.38;1.00;;;;;;;-142.75;66.71;78681.06;4991148;28;20544;-66
2023/04/03 09:31:59;;;;;;;1.40;0.40;;;;;;;-142.75;57.79;78742.09;4975766;28;20030;-65
2023/04/03 09:34:32;;;;;;;2.28;1.02;;;;;;;-142.75;51.75;78797.25;4972649;28;20030;-64
2023/04/03 09:37:05;;;;;;;2.97;1.10;;;;;;;-142.75;57.51;78757.88;5011179;28;20065;-64
2023/04/03 09:39:32;;;;;;;4.60;0.88;;;;;;;-142.75;62.71;78728.31;5004712;28;20054;-65
2023/04/03 09:42:03;;;;;;;3.35;0.98;;;;;;;-142.75;61.59;78657.41;5010959;28;20139;-65
2023/04/03 09:44:31;;;;;;;1.98;0.60;;;;;;;-142.75;59.32;78637.72;4976483;28;20433;-65
2023/04/03 09:46:57;;;;;;;4.68;0.60;;;;;;;-142.75;58.64;78586.53;4991180;28;20110;-64
2023/04/03 09:49:23;;;;;;;1.48;0.70;;;;;;;-142.75;51.88;78671.22;4991760;28;20034;-65
2023/04/03 09:51:49;;;;;;;1.60;0.40;;;;;;;-142.75;51.79;78688.94;5009215;28;20029;-65
2023/04/03 09:54:37;;;;;;;1.40;0.50;;;;;;;-142.75;50.86;78631.81;5001219;28;20018;-65
2023/04/03 09:57:12;;;;;;;2.85;0.55;;;;;;;-142.75;48.63;78643.63;5010358;28;20556;-65
2023/04/03 09:59:44;;;;;;;1.17;0.63;;;;;;;-142.75;47.69;78710.59;4993963;28;20093;-66
2023/04/03 10:02:32;;;;;;;4.28;0.50;;;;;;;-142.75;46.84;78702.72;4974241;28;20109;-65
2023/04/03 10:04:58;;;;;;;0.73;0.40;;;;;;;-142.75;45.62;78696.81;4979268;28;20514;-65
2023/04/03 10:07:37;;;;;;;2.50;0.30;;;;;;;-142.75;51.84;78637.72;5014860;28;20030;-65
2023/04/03 10:10:23;;;;;;;4.47;0.70;;;;;;;-142.75;46.61;78657.41;5013433;28;20503;-65
2023/04/03 10:12:49;;;;;;;1.60;0.45;;;;;;;-142.75;45.88;78704.69;5014494;28;20033;-65
2023/04/03 10:15:21;;;;;;;3.40;1.20;;;;;;;-142.75;46.49;78706.66;5014408;28;20068;-65
2023/04/03 10:18:07;;;;;;;6.60;2.60;;;;;;;-142.75;49.22;78700.75;5014616;28;20072;-65
2023/04/03 10:20:47;;;;;;;1.50;0.77;;;;;;;-142.75;46.83;78708.63;5012985;28;20121;-65
2023/04/03 10:23:24;;;;;;;1.50;0.63;;;;;;;-142.75;46.07;78653.47;5014459;28;20105;-65
2023/04/03 10:26:31;;;;;;;2.75;0.60;;;;;;;-142.75;44.92;78669.25;5003734;28;20085;-65
2023/04/03 10:29:20;;;;;;;2.33;0.30;;;;;;;-142.75;44.06;78708.63;4982243;28;20022;-65
2023/04/03 10:31:57;;;;;;;1.13;0.40;;;;;;;-142.75;47.57;78681.06;4979202;28;20037;-65
2023/04/03 10:34:27;;;;;;;2.15;0.80;;;;;;;-142.75;44.16;78641.66;4980722;28;20036;-65
2023/04/03 10:37:04;;;;;;;1.42;0.38;;;;;;;-142.75;43.37;78653.47;5009218;28;20037;-65
2023/04/03 10:39:41;;;;;;;1.30;0.60;;;;;;;-142.75;46.12;78661.34;5001874;28;20036;-65
2023/04/03 10:42:23;;;;;;;2.20;0.60;;;;;;;-142.75;42.13;78712.56;5004220;28;20034;-65
2023/04/03 10:45:16;;;;;;;1.02;0.32;;;;;;;-142.75;43.76;78710.59;4994187;28;20059;-66
2023/04/03 10:47:57;;;;;;;2.30;0.60;;;;;;;-142.75;43.54;78641.66;4983186;28;20073;-65
2023/04/03 10:50:53;;;;;;;1.13;0.30;;;;;;;-142.75;41.33;78685.00;4980571;28;20370;-65
2023/04/03 10:53:26;;;;;;;1.48;0.50;;;;;;;-142.75;42.68;78616.06;4996028;28;20026;-64
2023/04/03 10:56:13;;;;;;;0.80;0.40;;;;;;;-142.75;41.97;78511.69;4992813;28;20040;-65
2023/04/03 10:58:40;;;;;;;;;;;;;;;-142.75;43.87;78442.75;4978620;28;20038;-66
2023/04/03 11:01:20;;;;;;;1.40;0.52;;;;;;;-142.75;41.80;78444.72;5002134;28;19944;-66
2023/04/03 11:03:49;;;;;;;0.90;0.40;;;;;;;-142.75;37.89;78570.75;5013639;28;20030;-66
2023/04/03 11:06:17;;;;;;;0.63;0.20;;;;;;;-142.75;42.30;78537.28;5008419;28;20030;-66
2023/04/03 11:08:55;;;;;;;3.30;0.68;;;;;;;-142.75;39.78;78574.69;5012351;28;20017;-65
2023/04/03 11:11:33;;;;;;;0.68;0.30;;;;;;;-142.75;39.59;78553.03;5001131;28;20014;-66
2023/04/03 11:14:02;;;;;;;1.85;0.20;;;;;;;-142.75;41.43;78503.81;4982668;28;20054;-65
2023/04/03 11:16:31;;;;;;;0.68;0.25;;;;;;;-142.75;39.39;78488.03;4999255;28;20054;-65